createdAt,value
2022-09-11T00:01:16.792Z,15.80
2022-09-11T00:03:45.830Z,15.60
2022-09-11T00:06:27.426Z,15.60
2022-09-11T00:09:00.793Z,15.60
2022-09-11T00:11:29.569Z,15.60
2022-09-11T00:13:59.163Z,15.60
2022-09-11T00:16:28.874Z,15.60
2022-09-11T00:18:59.121Z,15.50
2022-09-11T00:21:29.432Z,15.50
2022-09-11T00:23:57.644Z,15.50
2022-09-11T00:26:26.219Z,15.50
2022-09-11T00:28:55.239Z,15.50
2022-09-11T00:31:26.345Z,15.50
2022-09-11T00:33:55.123Z,15.50
2022-09-11T00:36:25.870Z,15.50
2022-09-11T00:38:54.332Z,15.50
2022-09-11T00:41:24.426Z,15.60
2022-09-11T00:43:56.491Z,15.60
2022-09-11T00:46:31.502Z,15.60
2022-09-11T00:49:01.517Z,15.60
2022-09-11T00:51:34.326Z,15.60
2022-09-11T00:54:05.304Z,15.60
2022-09-11T00:56:35.849Z,15.60
2022-09-11T00:59:05.336Z,15.70
2022-09-11T01:01:34.756Z,15.70
2022-09-11T01:04:05.122Z,15.70
2022-09-11T01:06:33.599Z,15.70
2022-09-11T01:09:01.849Z,15.70
2022-09-11T01:11:46.048Z,15.70
2022-09-11T01:14:34.320Z,15.60
2022-09-11T01:17:18.164Z,15.60
2022-09-11T01:20:16.106Z,15.70
2022-09-11T01:23:02.919Z,15.70
2022-09-11T01:25:49.809Z,15.60
2022-09-11T01:28:24.322Z,15.60
2022-09-11T01:30:58.180Z,15.60
2022-09-11T01:33:30.935Z,16.20
2022-09-11T01:36:06.009Z,15.60
2022-09-11T01:38:39.083Z,15.60
2022-09-11T01:41:10.759Z,15.60
2022-09-11T01:43:46.118Z,15.60
2022-09-11T01:46:17.734Z,15.60
2022-09-11T01:48:48.644Z,15.60
2022-09-11T01:51:23.410Z,15.50
2022-09-11T01:53:52.482Z,15.50
2022-09-11T01:56:24.581Z,15.60
2022-09-11T01:58:59.445Z,15.50
2022-09-11T02:01:31.798Z,15.40
2022-09-11T02:04:02.853Z,15.40
2022-09-11T02:06:35.591Z,15.40
2022-09-11T02:09:10.208Z,15.30
2022-09-11T02:11:41.374Z,15.30
2022-09-11T02:14:17.985Z,15.40
2022-09-11T02:16:51.498Z,15.30
2022-09-11T02:19:21.555Z,15.20
2022-09-11T02:21:50.983Z,15.30
2022-09-11T02:24:20.835Z,15.20
2022-09-11T02:26:53.430Z,15.30
2022-09-11T02:29:22.762Z,15.20
2022-09-11T02:31:52.145Z,15.40
2022-09-11T02:34:26.989Z,15.20
2022-09-11T02:37:09.289Z,15.30
2022-09-11T02:39:56.860Z,15.10
2022-09-11T02:42:38.308Z,15.10
2022-09-11T02:45:17.905Z,15.00
2022-09-11T02:47:55.949Z,15.00
2022-09-11T02:50:30.958Z,15.00
2022-09-11T02:53:05.333Z,15.00
2022-09-11T02:55:41.758Z,15.00
2022-09-11T02:58:17.420Z,15.00
2022-09-11T03:00:46.828Z,15.00
2022-09-11T03:03:15.084Z,15.00
2022-09-11T03:05:43.514Z,14.90
2022-09-11T03:08:12.270Z,15.30
2022-09-11T03:10:40.407Z,14.90
2022-09-11T03:13:08.379Z,14.80
2022-09-11T03:15:36.275Z,14.80
2022-09-11T03:18:05.746Z,14.80
2022-09-11T03:20:34.175Z,14.80
2022-09-11T03:23:02.040Z,15.90
2022-09-11T03:25:29.942Z,14.70
2022-09-11T03:27:57.824Z,14.70
2022-09-11T03:30:25.645Z,14.70
2022-09-11T03:32:54.205Z,14.70
2022-09-11T03:35:24.684Z,14.70
2022-09-11T03:37:52.679Z,14.60
2022-09-11T03:40:21.494Z,14.60
2022-09-11T03:42:49.462Z,14.60
2022-09-11T03:45:17.525Z,14.60
2022-09-11T03:47:45.435Z,14.50
2022-09-11T03:50:14.005Z,14.50
2022-09-11T03:52:43.554Z,14.50
2022-09-11T03:55:11.706Z,14.50
2022-09-11T03:57:40.558Z,14.50
2022-09-11T04:00:10.020Z,14.50
2022-09-11T04:02:37.926Z,14.40
2022-09-11T04:05:06.664Z,14.40
2022-09-11T04:07:34.749Z,14.40
2022-09-11T04:10:04.063Z,14.40
2022-09-11T04:12:31.938Z,14.40
2022-09-11T04:14:59.811Z,14.40
2022-09-11T04:17:29.924Z,14.30
2022-09-11T04:19:58.321Z,14.30
2022-09-11T04:22:26.829Z,14.40
2022-09-11T04:24:54.691Z,14.30
2022-09-11T04:27:24.054Z,14.30
2022-09-11T04:29:51.975Z,14.30
2022-09-11T04:32:20.221Z,14.20
2022-09-11T04:34:48.284Z,14.30
2022-09-11T04:37:16.689Z,14.30
2022-09-11T04:39:44.628Z,14.30
2022-09-11T04:42:12.558Z,13.60
2022-09-11T04:44:42.081Z,14.20
2022-09-11T04:47:09.941Z,14.20
2022-09-11T04:49:37.834Z,14.90
2022-09-11T04:52:07.285Z,14.20
2022-09-11T04:54:36.872Z,14.20
2022-09-11T04:57:05.170Z,14.10
2022-09-11T04:59:33.254Z,14.10
2022-09-11T05:02:03.100Z,14.10
2022-09-11T05:04:31.391Z,14.10
2022-09-11T05:06:59.344Z,14.10
2022-09-11T05:09:28.155Z,14.10
2022-09-11T05:11:56.170Z,14.10
2022-09-11T05:14:24.043Z,14.10
2022-09-11T05:16:52.878Z,14.10
2022-09-11T05:19:22.657Z,14.80
2022-09-11T05:21:51.050Z,14.10
2022-09-11T05:24:18.917Z,14.10
2022-09-11T05:26:46.780Z,14.10
2022-09-11T05:29:16.730Z,14.00
2022-09-11T05:31:44.819Z,14.00
2022-09-11T05:34:12.708Z,14.60
2022-09-11T05:36:41.930Z,14.00
2022-09-11T05:39:10.524Z,14.10
2022-09-11T05:41:38.402Z,14.10
2022-09-11T05:44:06.405Z,14.10
2022-09-11T05:46:34.409Z,14.50
2022-09-11T05:49:02.699Z,14.00
2022-09-11T05:51:30.549Z,14.10
2022-09-11T05:53:59.766Z,14.10
2022-09-11T05:56:28.295Z,14.10
2022-09-11T05:58:56.215Z,14.10
2022-09-11T06:01:26.320Z,14.10
2022-09-11T06:03:55.322Z,14.20
2022-09-11T06:06:24.354Z,14.20
2022-09-11T06:08:53.384Z,14.20
2022-09-11T06:11:23.332Z,14.20
2022-09-11T06:13:51.738Z,14.20
2022-09-11T06:16:21.175Z,14.30
2022-09-11T06:18:50.170Z,14.30
2022-09-11T06:21:20.502Z,14.30
2022-09-11T06:23:50.046Z,14.30
2022-09-11T06:26:19.342Z,14.70
2022-09-11T06:28:48.964Z,14.40
2022-09-11T06:31:19.338Z,14.40
2022-09-11T06:33:48.317Z,14.40
2022-09-11T06:36:18.569Z,14.50
2022-09-11T06:38:47.470Z,14.50
2022-09-11T06:41:17.250Z,14.50
2022-09-11T06:43:45.769Z,14.60
2022-09-11T06:46:16.803Z,14.60
2022-09-11T06:48:46.789Z,14.70
2022-09-11T06:51:17.444Z,14.80
2022-09-11T06:53:47.393Z,14.80
2022-09-11T06:56:17.023Z,14.90
2022-09-11T06:58:45.999Z,15.60
2022-09-11T07:01:17.370Z,15.70
2022-09-11T07:03:46.342Z,15.00
2022-09-11T07:06:14.952Z,15.20
2022-09-11T07:08:43.123Z,15.20
2022-09-11T07:11:12.797Z,15.90
2022-09-11T07:13:41.937Z,15.30
2022-09-11T07:16:12.977Z,15.30
2022-09-11T07:18:44.969Z,15.40
2022-09-11T07:21:15.228Z,15.50
2022-09-11T07:23:44.638Z,15.50
2022-09-11T07:26:13.979Z,15.60
2022-09-11T07:28:42.103Z,15.70
2022-09-11T07:31:12.371Z,15.70
2022-09-11T07:33:45.903Z,16.60
2022-09-11T07:36:16.738Z,15.80
2022-09-11T07:38:47.141Z,15.80
2022-09-11T07:41:16.771Z,15.90
2022-09-11T07:43:46.444Z,15.80
2022-09-11T07:46:15.805Z,16.00
2022-09-11T07:48:45.094Z,16.10
2022-09-11T07:51:15.426Z,16.20
2022-09-11T07:53:45.290Z,16.20
2022-09-11T07:56:15.199Z,16.30
2022-09-11T07:58:44.278Z,16.30
2022-09-11T08:01:16.352Z,16.40
2022-09-11T08:03:46.647Z,16.40
2022-09-11T08:06:21.365Z,16.50
2022-09-11T08:08:53.680Z,16.80
2022-09-11T08:11:22.107Z,16.60
2022-09-11T08:13:52.077Z,16.60
2022-09-11T08:16:21.181Z,16.70
2022-09-11T08:18:51.930Z,16.80
2022-09-11T08:21:20.258Z,16.90
2022-09-11T08:23:49.166Z,16.90
2022-09-11T08:26:21.923Z,17.10
2022-09-11T08:28:52.149Z,17.10
2022-09-11T08:31:22.022Z,17.10
2022-09-11T08:33:51.424Z,17.20
2022-09-11T08:36:20.439Z,17.80
2022-09-11T08:38:48.834Z,17.40
2022-09-11T08:41:32.428Z,18.00
2022-09-11T08:44:06.010Z,17.50
2022-09-11T08:46:38.430Z,17.50
2022-09-11T08:49:15.773Z,17.60
2022-09-11T08:51:45.082Z,17.80
2022-09-11T08:54:27.846Z,17.70
2022-09-11T08:57:08.411Z,17.80
2022-09-11T08:59:54.373Z,17.90
2022-09-11T09:02:49.622Z,18.00
2022-09-11T09:05:28.459Z,18.00
2022-09-11T09:08:07.253Z,18.20
2022-09-11T09:10:48.416Z,18.20
2022-09-11T09:13:33.584Z,18.20
2022-09-11T09:16:09.957Z,18.70
2022-09-11T09:18:41.945Z,18.60
2022-09-11T09:21:16.620Z,18.50
2022-09-11T09:23:50.161Z,18.60
2022-09-11T09:26:19.918Z,18.60
2022-09-11T09:28:50.679Z,18.80
2022-09-11T09:31:22.089Z,19.20
2022-09-11T09:33:53.654Z,19.00
2022-09-11T09:36:27.516Z,19.10
2022-09-11T09:38:56.418Z,19.50
2022-09-11T09:41:59.713Z,19.40
2022-09-11T09:44:46.365Z,19.30
2022-09-11T09:47:15.323Z,19.30
2022-09-11T09:49:45.440Z,19.40
2022-09-11T09:52:19.726Z,19.70
2022-09-11T09:54:55.391Z,19.50
2022-09-11T09:57:27.327Z,19.60
2022-09-11T10:00:02.526Z,19.80
2022-09-11T10:02:40.886Z,20.00
2022-09-11T10:05:25.063Z,20.10
2022-09-11T10:07:56.893Z,20.20
2022-09-11T10:10:30.284Z,20.40
2022-09-11T10:13:18.219Z,20.50
2022-09-11T10:15:50.618Z,20.60
2022-09-11T10:18:40.300Z,20.70
2022-09-11T10:21:24.477Z,20.70
2022-09-11T10:23:56.644Z,20.80
2022-09-11T10:26:26.740Z,20.90
2022-09-11T10:28:57.340Z,21.10
2022-09-11T10:31:26.399Z,21.70
2022-09-11T10:33:56.737Z,21.30
2022-09-11T10:36:27.276Z,21.40
2022-09-11T10:38:58.782Z,21.40
2022-09-11T10:41:36.371Z,21.30
2022-09-11T10:44:07.826Z,21.40
2022-09-11T10:46:40.545Z,21.80
2022-09-11T10:49:18.117Z,21.80
2022-09-11T10:52:01.306Z,22.00
2022-09-11T10:55:05.158Z,22.10
2022-09-11T10:57:40.300Z,22.10
2022-09-11T11:00:16.717Z,22.00
2022-09-11T11:02:46.641Z,22.20
2022-09-11T11:05:22.501Z,22.40
2022-09-11T11:08:23.355Z,22.60
2022-09-11T11:11:16.315Z,22.50
2022-09-11T11:14:05.966Z,22.70
2022-09-11T11:16:41.549Z,22.80
2022-09-11T11:19:42.707Z,23.00
2022-09-11T11:22:22.462Z,23.10
2022-09-11T11:25:03.022Z,23.30
2022-09-11T11:27:55.709Z,22.90
2022-09-11T11:30:30.699Z,23.00
2022-09-11T11:33:14.395Z,22.90
2022-09-11T11:35:50.981Z,22.80
2022-09-11T11:38:24.345Z,23.10
2022-09-11T11:40:55.918Z,22.80
2022-09-11T11:43:27.490Z,22.90
2022-09-11T11:46:02.294Z,22.80
2022-09-11T11:48:38.505Z,23.30
2022-09-11T11:51:09.382Z,22.90
2022-09-11T11:53:41.577Z,23.30
2022-09-11T11:56:15.694Z,22.80
2022-09-11T11:58:50.285Z,22.90
2022-09-11T12:01:30.357Z,22.90
2022-09-11T12:04:06.077Z,23.00
2022-09-11T12:06:33.947Z,22.90
2022-09-11T12:09:10.366Z,22.90
2022-09-11T12:11:39.183Z,23.00
2022-09-11T12:14:08.093Z,23.10
2022-09-11T12:16:39.038Z,23.00
2022-09-11T12:19:17.356Z,23.10
2022-09-11T12:22:07.598Z,23.00
2022-09-11T12:24:52.425Z,23.00
2022-09-11T12:27:52.961Z,23.00
2022-09-11T12:30:27.929Z,23.10
2022-09-11T12:32:59.149Z,22.90
2022-09-11T12:35:41.623Z,22.90
2022-09-11T12:38:23.116Z,23.00
2022-09-11T12:40:54.405Z,23.00
2022-09-11T12:43:31.782Z,23.30
2022-09-11T12:46:00.023Z,23.00
2022-09-11T12:48:39.764Z,22.90
2022-09-11T12:51:24.185Z,23.00
2022-09-11T12:53:56.265Z,23.00
2022-09-11T12:56:25.506Z,23.00
2022-09-11T12:58:57.770Z,22.90
2022-09-11T13:01:30.555Z,22.80
2022-09-11T13:04:03.292Z,22.80
2022-09-11T13:06:44.305Z,22.70
2022-09-11T13:09:20.708Z,22.70
2022-09-11T13:11:50.175Z,22.80
2022-09-11T13:14:49.787Z,22.80
2022-09-11T13:17:26.129Z,22.90
2022-09-11T13:20:10.667Z,22.90
2022-09-11T13:22:39.614Z,22.90
2022-09-11T13:25:12.792Z,22.90
2022-09-11T13:27:43.425Z,22.80
2022-09-11T13:30:14.316Z,22.80
2022-09-11T13:32:42.861Z,22.70
2022-09-11T13:35:16.478Z,22.70
2022-09-11T13:37:58.120Z,22.70
2022-09-11T13:40:29.041Z,22.80
2022-09-11T13:42:57.779Z,22.70
2022-09-11T13:45:28.749Z,22.70
2022-09-11T13:47:57.962Z,22.60
2022-09-11T13:50:27.555Z,22.50
2022-09-11T13:52:55.842Z,22.60
2022-09-11T13:55:26.847Z,22.80
2022-09-11T13:57:58.553Z,22.60
2022-09-11T14:00:44.859Z,22.60
2022-09-11T14:03:21.510Z,22.70
2022-09-11T14:05:53.904Z,22.70
2022-09-11T14:08:29.246Z,22.70
2022-09-11T14:11:00.832Z,22.80
2022-09-11T14:13:33.267Z,22.90
2022-09-11T14:16:05.582Z,22.90
2022-09-11T14:18:37.194Z,22.90
2022-09-11T14:21:13.472Z,23.00
2022-09-11T14:23:44.674Z,23.10
2022-09-11T14:26:16.267Z,23.00
2022-09-11T14:28:50.570Z,23.10
2022-09-11T14:31:30.316Z,23.10
2022-09-11T14:34:15.237Z,23.20
2022-09-11T14:36:50.164Z,23.10
2022-09-11T14:39:25.978Z,23.20
2022-09-11T14:41:55.149Z,23.10
2022-09-11T14:44:24.836Z,23.30
2022-09-11T14:46:52.751Z,23.10
2022-09-11T14:49:20.658Z,23.00
2022-09-11T14:51:55.201Z,23.00
2022-09-11T14:54:23.913Z,23.00
2022-09-11T14:56:52.605Z,22.90
2022-09-11T14:59:20.670Z,22.90
2022-09-11T15:01:52.117Z,22.70
2022-09-11T15:04:22.921Z,22.70
2022-09-11T15:06:54.063Z,22.80
2022-09-11T15:09:22.422Z,22.70
2022-09-11T15:11:53.134Z,22.70
2022-09-11T15:14:44.798Z,22.70
2022-09-11T15:17:11.408Z,22.60
2022-09-11T15:19:39.465Z,22.60
2022-09-11T15:22:09.585Z,22.60
2022-09-11T15:24:37.462Z,22.60
2022-09-11T15:27:05.657Z,22.60
2022-09-11T15:29:34.455Z,22.50
2022-09-11T15:32:03.432Z,22.40
2022-09-11T15:34:33.354Z,22.40
2022-09-11T15:37:01.313Z,22.30
2022-09-11T15:39:30.566Z,22.20
2022-09-11T15:41:58.576Z,22.20
2022-09-11T15:44:28.644Z,22.20
2022-09-11T15:46:58.611Z,22.30
2022-09-11T15:49:29.194Z,22.30
2022-09-11T15:51:58.075Z,22.20
2022-09-11T15:54:26.403Z,22.20
2022-09-11T15:56:56.181Z,22.20
2022-09-11T15:59:24.556Z,21.90
2022-09-11T16:01:52.626Z,22.00
2022-09-11T16:04:23.124Z,22.10
2022-09-11T16:06:53.619Z,22.20
2022-09-11T16:09:24.314Z,22.00
2022-09-11T16:11:54.442Z,21.90
2022-09-11T16:14:25.489Z,21.90
2022-09-11T16:16:54.408Z,22.00
2022-09-11T16:19:27.532Z,22.20
2022-09-11T16:21:56.946Z,22.30
2022-09-11T16:24:25.929Z,22.20
2022-09-11T16:26:56.006Z,22.50
2022-09-11T16:29:43.955Z,22.10
2022-09-11T16:32:28.101Z,22.20
2022-09-11T16:34:56.882Z,22.20
2022-09-11T16:37:25.163Z,22.20
2022-09-11T16:39:53.107Z,22.30
2022-09-11T16:42:21.227Z,22.20
2022-09-11T16:44:51.046Z,22.10
2022-09-11T16:47:20.086Z,22.20
2022-09-11T16:52:36.554Z,22.10
2022-09-11T16:55:05.114Z,22.10
2022-09-11T16:57:33.441Z,22.10
2022-09-11T17:00:03.099Z,22.10
2022-09-11T17:02:31.034Z,22.00
2022-09-11T17:04:59.021Z,22.00
2022-09-11T17:07:26.888Z,22.20
2022-09-11T17:09:54.998Z,21.80
2022-09-11T17:12:22.930Z,21.80
2022-09-11T17:14:51.118Z,21.80
2022-09-11T17:17:20.451Z,21.80
2022-09-11T17:19:51.080Z,21.70
2022-09-11T17:22:19.040Z,21.60
2022-09-11T17:24:46.938Z,21.60
2022-09-11T17:27:15.015Z,21.70
2022-09-11T17:29:44.763Z,21.50
2022-09-11T17:32:27.868Z,21.50
2022-09-11T17:34:59.372Z,21.50
2022-09-11T17:37:27.973Z,21.40
2022-09-11T17:39:56.193Z,21.40
2022-09-11T17:42:24.232Z,21.30
2022-09-11T17:44:52.106Z,21.30
2022-09-11T17:47:19.958Z,21.20
2022-09-11T17:49:48.469Z,21.10
2022-09-11T17:52:19.057Z,21.10
2022-09-11T17:54:47.388Z,21.00
2022-09-11T17:57:15.583Z,21.90
2022-09-11T17:59:44.181Z,20.80
2022-09-11T18:02:13.962Z,20.80
2022-09-11T18:04:43.749Z,20.60
2022-09-11T18:07:12.138Z,20.60
2022-09-11T18:09:41.499Z,20.50
2022-09-11T18:12:09.997Z,20.50
2022-09-11T18:14:38.443Z,20.40
2022-09-11T18:17:06.453Z,20.30
2022-09-11T18:19:34.392Z,20.20
2022-09-11T18:22:02.291Z,20.10
2022-09-11T18:24:31.252Z,20.20
2022-09-11T18:27:01.223Z,20.00
2022-09-11T18:29:30.552Z,19.80
2022-09-11T18:32:00.275Z,20.00
2022-09-11T18:34:29.464Z,20.30
2022-09-11T18:36:57.659Z,19.60
2022-09-11T18:39:25.814Z,19.50
2022-09-11T18:41:53.698Z,19.40
2022-09-11T18:44:25.249Z,19.50
2022-09-11T18:46:54.066Z,19.60
2022-09-11T18:49:22.505Z,19.20
2022-09-11T18:51:50.710Z,19.10
2022-09-11T18:54:20.959Z,19.00
2022-09-11T18:56:50.201Z,19.00
2022-09-11T18:59:19.390Z,19.00
2022-09-11T19:01:48.903Z,18.80
2022-09-11T19:04:17.941Z,18.70
2022-09-11T19:06:46.286Z,19.00
2022-09-11T19:09:14.729Z,19.40
2022-09-11T19:11:42.893Z,18.60
2022-09-11T19:14:12.774Z,18.50
2022-09-11T19:16:41.134Z,18.60
2022-09-11T19:19:10.713Z,18.40
2022-09-11T19:21:38.879Z,18.40
2022-09-11T19:24:07.777Z,18.40
2022-09-11T19:26:38.779Z,18.20
2022-09-11T19:29:08.742Z,18.10
2022-09-11T19:31:39.347Z,18.10
2022-09-11T19:34:09.530Z,18.00
2022-09-11T19:36:38.930Z,17.90
2022-09-11T19:39:07.212Z,18.80
2022-09-11T19:41:37.744Z,18.20
2022-09-11T19:44:07.551Z,17.80
2022-09-11T19:46:37.351Z,17.70
2022-09-11T19:49:06.812Z,18.80
2022-09-11T19:51:37.498Z,17.60
2022-09-11T19:54:07.258Z,17.60
2022-09-11T19:56:37.088Z,17.50
2022-09-11T19:59:06.778Z,17.50
2022-09-11T20:01:34.708Z,17.30
2022-09-11T20:04:03.101Z,17.40
2022-09-11T20:06:34.142Z,17.30
2022-09-11T20:09:27.330Z,17.40
2022-09-11T20:11:51.789Z,17.30
2022-09-11T20:14:19.694Z,17.30
2022-09-11T20:16:47.558Z,17.20
2022-09-11T20:19:17.194Z,17.10
2022-09-11T20:21:45.136Z,17.10
2022-09-11T20:24:13.063Z,17.00
2022-09-11T20:26:41.062Z,17.10
2022-09-11T20:29:14.399Z,17.00
2022-09-11T20:31:47.490Z,17.00
2022-09-11T20:34:16.260Z,16.90
2022-09-11T20:36:44.217Z,16.90
2022-09-11T20:39:13.366Z,16.90
2022-09-11T20:41:41.387Z,17.20
2022-09-11T20:44:11.234Z,17.00
2022-09-11T20:46:39.222Z,16.90
2022-09-11T20:49:07.151Z,16.80
2022-09-11T20:51:35.384Z,16.70
2022-09-11T20:54:03.749Z,16.60
2022-09-11T20:56:31.662Z,16.60
2022-09-11T20:59:00.900Z,16.60
2022-09-11T21:01:33.113Z,16.60
2022-09-11T21:04:02.694Z,16.60
2022-09-11T21:06:32.462Z,16.50
2022-09-11T21:09:02.947Z,16.50
2022-09-11T21:11:31.814Z,16.40
2022-09-11T21:14:00.488Z,16.50
2022-09-11T21:16:29.976Z,16.90
2022-09-11T21:18:59.951Z,16.40
2022-09-11T21:21:29.638Z,17.20
2022-09-11T21:23:58.449Z,16.40
2022-09-11T21:26:28.689Z,16.30
2022-09-11T21:28:57.834Z,17.10
2022-09-11T21:31:26.190Z,16.30
2022-09-11T21:33:55.786Z,17.40
2022-09-11T21:36:23.779Z,16.70
2022-09-11T21:38:51.682Z,16.20
2022-09-11T21:41:19.996Z,16.20
2022-09-11T21:43:48.379Z,16.10
2022-09-11T21:46:16.407Z,16.10
2022-09-11T21:48:44.352Z,16.10
2022-09-11T21:51:15.289Z,16.10
2022-09-11T21:53:44.797Z,16.10
2022-09-11T21:56:18.187Z,16.00
2022-09-11T21:58:46.125Z,16.00
2022-09-11T22:01:14.706Z,16.10
2022-09-11T22:03:42.794Z,16.00
2022-09-11T22:06:11.835Z,16.00
2022-09-11T22:08:43.099Z,16.00
2022-09-11T22:11:11.897Z,15.90
2022-09-11T22:13:40.217Z,16.10
2022-09-11T22:16:10.359Z,16.00
2022-09-11T22:18:40.047Z,16.60
2022-09-11T22:21:08.883Z,15.90
2022-09-11T22:23:37.202Z,15.90
2022-09-11T22:26:09.724Z,15.80
2022-09-11T22:28:37.929Z,15.80
2022-09-11T22:31:08.751Z,15.80
2022-09-11T22:33:38.785Z,15.70
2022-09-11T22:36:11.766Z,15.70
2022-09-11T22:38:39.735Z,15.70
2022-09-11T22:41:09.447Z,15.70
2022-09-11T22:43:37.667Z,15.70
2022-09-11T22:46:06.387Z,15.70
2022-09-11T22:48:34.457Z,15.60
2022-09-11T22:51:02.754Z,15.60
2022-09-11T22:53:31.722Z,15.80
2022-09-11T22:55:59.933Z,15.60
2022-09-11T22:58:30.600Z,15.50
2022-09-11T23:01:00.824Z,15.50
2022-09-11T23:03:28.909Z,15.50
2022-09-11T23:06:14.948Z,15.50
2022-09-11T23:08:45.556Z,15.50
2022-09-11T23:11:16.128Z,15.50
2022-09-11T23:13:47.695Z,15.50
2022-09-11T23:16:18.229Z,15.40
2022-09-11T23:18:46.856Z,15.40
2022-09-11T23:21:15.565Z,15.40
2022-09-11T23:23:44.856Z,15.30
2022-09-11T23:26:14.378Z,15.30
2022-09-11T23:28:42.651Z,15.30
2022-09-11T23:31:16.909Z,15.30
2022-09-11T23:33:44.956Z,15.70
2022-09-11T23:36:14.919Z,15.20
2022-09-11T23:38:45.891Z,15.20
2022-09-11T23:41:14.310Z,15.20
2022-09-11T23:43:42.959Z,15.20
2022-09-11T23:46:11.600Z,15.20
2022-09-11T23:48:41.341Z,15.20
2022-09-11T23:51:10.360Z,15.20
2022-09-11T23:53:38.623Z,15.10
2022-09-11T23:56:06.914Z,15.20
2022-09-11T23:58:39.742Z,15.10
